sensor_id;sensor_type;location;lat;lon;timestamp;P1;durP1;ratioP1;P2;durP2;ratioP2
58222;SDS011;44020;50.890;15.796;2023-06-19T00:01:36;6.80;;;5.10;;
58222;SDS011;44020;50.890;15.796;2023-06-19T00:04:03;8.70;;;6.00;;
58222;SDS011;44020;50.890;15.796;2023-06-19T00:06:31;8.60;;;6.20;;
58222;SDS011;44020;50.890;15.796;2023-06-19T00:08:58;6.30;;;5.40;;
58222;SDS011;44020;50.890;15.796;2023-06-19T00:11:25;8.30;;;5.80;;
58222;SDS011;44020;50.890;15.796;2023-06-19T00:13:53;7.50;;;6.20;;
58222;SDS011;44020;50.890;15.796;2023-06-19T00:16:21;8.30;;;6.60;;
58222;SDS011;44020;50.890;15.796;2023-06-19T00:18:48;7.80;;;5.80;;
58222;SDS011;44020;50.890;15.796;2023-06-19T00:21:16;8.10;;;6.30;;
58222;SDS011;44020;50.890;15.796;2023-06-19T00:23:44;9.80;;;6.50;;
58222;SDS011;44020;50.890;15.796;2023-06-19T00:26:11;9.80;;;6.70;;
58222;SDS011;44020;50.890;15.796;2023-06-19T00:28:41;8.80;;;6.80;;
58222;SDS011;44020;50.890;15.796;2023-06-19T00:31:11;12.00;;;7.40;;
58222;SDS011;44020;50.890;15.796;2023-06-19T00:33:43;7.50;;;6.30;;
58222;SDS011;44020;50.890;15.796;2023-06-19T00:36:14;14.20;;;6.10;;
58222;SDS011;44020;50.890;15.796;2023-06-19T00:38:42;8.10;;;6.00;;
58222;SDS011;44020;50.890;15.796;2023-06-19T00:41:10;7.20;;;6.50;;
58222;SDS011;44020;50.890;15.796;2023-06-19T00:43:37;7.30;;;6.20;;
58222;SDS011;44020;50.890;15.796;2023-06-19T00:46:05;7.60;;;6.20;;
58222;SDS011;44020;50.890;15.796;2023-06-19T00:48:33;9.00;;;6.10;;
58222;SDS011;44020;50.890;15.796;2023-06-19T00:51:02;8.10;;;5.90;;
58222;SDS011;44020;50.890;15.796;2023-06-19T00:53:30;10.00;;;6.20;;
58222;SDS011;44020;50.890;15.796;2023-06-19T00:55:59;8.90;;;6.20;;
58222;SDS011;44020;50.890;15.796;2023-06-19T00:58:27;7.00;;;6.30;;
58222;SDS011;44020;50.890;15.796;2023-06-19T01:00:55;8.30;;;6.40;;
58222;SDS011;44020;50.890;15.796;2023-06-19T01:03:24;7.60;;;5.90;;
58222;SDS011;44020;50.890;15.796;2023-06-19T01:05:54;7.50;;;6.10;;
58222;SDS011;44020;50.890;15.796;2023-06-19T01:11:27;7.80;;;5.90;;
58222;SDS011;44020;50.890;15.796;2023-06-19T01:14:00;9.10;;;6.00;;
58222;SDS011;44020;50.890;15.796;2023-06-19T01:16:32;7.10;;;5.70;;
58222;SDS011;44020;50.890;15.796;2023-06-19T01:19:01;7.00;;;5.30;;
58222;SDS011;44020;50.890;15.796;2023-06-19T01:21:31;7.00;;;5.40;;
58222;SDS011;44020;50.890;15.796;2023-06-19T01:23:59;9.30;;;5.60;;
58222;SDS011;44020;50.890;15.796;2023-06-19T01:26:28;6.50;;;5.60;;
58222;SDS011;44020;50.890;15.796;2023-06-19T01:28:56;5.90;;;5.20;;
58222;SDS011;44020;50.890;15.796;2023-06-19T01:31:25;7.50;;;5.50;;
58222;SDS011;44020;50.890;15.796;2023-06-19T01:34:06;8.00;;;6.70;;
58222;SDS011;44020;50.890;15.796;2023-06-19T01:36:35;9.70;;;6.60;;
58222;SDS011;44020;50.890;15.796;2023-06-19T01:39:02;6.70;;;5.90;;
58222;SDS011;44020;50.890;15.796;2023-06-19T01:41:32;7.10;;;6.00;;
58222;SDS011;44020;50.890;15.796;2023-06-19T01:44:00;6.90;;;5.70;;
58222;SDS011;44020;50.890;15.796;2023-06-19T01:46:29;7.20;;;5.80;;
58222;SDS011;44020;50.890;15.796;2023-06-19T01:48:57;7.70;;;6.00;;
58222;SDS011;44020;50.890;15.796;2023-06-19T01:51:24;6.30;;;5.40;;
58222;SDS011;44020;50.890;15.796;2023-06-19T01:53:52;7.50;;;5.40;;
58222;SDS011;44020;50.890;15.796;2023-06-19T01:56:19;6.90;;;5.40;;
58222;SDS011;44020;50.890;15.796;2023-06-19T01:58:47;6.20;;;5.50;;
58222;SDS011;44020;50.890;15.796;2023-06-19T02:01:14;6.60;;;5.10;;
58222;SDS011;44020;50.890;15.796;2023-06-19T02:03:42;6.50;;;5.30;;
58222;SDS011;44020;50.890;15.796;2023-06-19T02:06:09;6.90;;;5.30;;
58222;SDS011;44020;50.890;15.796;2023-06-19T02:08:37;6.70;;;5.20;;
58222;SDS011;44020;50.890;15.796;2023-06-19T02:11:04;6.40;;;5.30;;
58222;SDS011;44020;50.890;15.796;2023-06-19T02:13:33;6.50;;;5.30;;
58222;SDS011;44020;50.890;15.796;2023-06-19T02:16:00;12.90;;;5.80;;
58222;SDS011;44020;50.890;15.796;2023-06-19T02:18:28;6.30;;;5.40;;
58222;SDS011;44020;50.890;15.796;2023-06-19T02:20:56;8.30;;;5.80;;
58222;SDS011;44020;50.890;15.796;2023-06-19T02:23:24;8.20;;;5.70;;
58222;SDS011;44020;50.890;15.796;2023-06-19T02:25:51;10.20;;;5.70;;
58222;SDS011;44020;50.890;15.796;2023-06-19T02:28:18;8.00;;;5.50;;
58222;SDS011;44020;50.890;15.796;2023-06-19T02:30:47;6.30;;;5.30;;
58222;SDS011;44020;50.890;15.796;2023-06-19T02:33:14;8.10;;;5.40;;
58222;SDS011;44020;50.890;15.796;2023-06-19T02:35:42;6.80;;;5.40;;
58222;SDS011;44020;50.890;15.796;2023-06-19T02:38:11;5.90;;;5.10;;
58222;SDS011;44020;50.890;15.796;2023-06-19T02:40:42;6.40;;;5.20;;
58222;SDS011;44020;50.890;15.796;2023-06-19T02:43:09;6.70;;;5.50;;
58222;SDS011;44020;50.890;15.796;2023-06-19T02:45:36;7.00;;;5.10;;
58222;SDS011;44020;50.890;15.796;2023-06-19T02:48:04;6.80;;;5.10;;
58222;SDS011;44020;50.890;15.796;2023-06-19T02:50:31;6.70;;;5.20;;
58222;SDS011;44020;50.890;15.796;2023-06-19T02:52:59;6.40;;;5.30;;
58222;SDS011;44020;50.890;15.796;2023-06-19T02:55:26;7.10;;;5.00;;
58222;SDS011;44020;50.890;15.796;2023-06-19T02:57:54;7.60;;;5.30;;
58222;SDS011;44020;50.890;15.796;2023-06-19T03:00:22;5.90;;;5.30;;
58222;SDS011;44020;50.890;15.796;2023-06-19T03:02:49;6.60;;;5.50;;
58222;SDS011;44020;50.890;15.796;2023-06-19T03:05:18;6.20;;;5.40;;
58222;SDS011;44020;50.890;15.796;2023-06-19T03:07:45;6.60;;;5.30;;
58222;SDS011;44020;50.890;15.796;2023-06-19T03:10:13;6.70;;;5.60;;
58222;SDS011;44020;50.890;15.796;2023-06-19T03:12:41;6.30;;;5.30;;
58222;SDS011;44020;50.890;15.796;2023-06-19T03:15:09;6.70;;;6.00;;
58222;SDS011;44020;50.890;15.796;2023-06-19T03:17:37;9.70;;;6.10;;
58222;SDS011;44020;50.890;15.796;2023-06-19T03:20:05;6.50;;;5.10;;
58222;SDS011;44020;50.890;15.796;2023-06-19T03:22:33;7.40;;;5.30;;
58222;SDS011;44020;50.890;15.796;2023-06-19T03:25:01;6.70;;;5.50;;
58222;SDS011;44020;50.890;15.796;2023-06-19T03:27:28;7.80;;;5.30;;
58222;SDS011;44020;50.890;15.796;2023-06-19T03:29:57;8.50;;;5.40;;
58222;SDS011;44020;50.890;15.796;2023-06-19T03:32:25;6.60;;;5.30;;
58222;SDS011;44020;50.890;15.796;2023-06-19T03:34:52;10.10;;;5.50;;
58222;SDS011;44020;50.890;15.796;2023-06-19T03:37:19;6.70;;;5.70;;
58222;SDS011;44020;50.890;15.796;2023-06-19T03:39:46;8.90;;;5.80;;
58222;SDS011;44020;50.890;15.796;2023-06-19T03:42:14;8.60;;;5.80;;
58222;SDS011;44020;50.890;15.796;2023-06-19T03:44:42;8.00;;;6.00;;
58222;SDS011;44020;50.890;15.796;2023-06-19T03:47:10;7.70;;;6.10;;
58222;SDS011;44020;50.890;15.796;2023-06-19T03:49:37;8.10;;;6.40;;
58222;SDS011;44020;50.890;15.796;2023-06-19T03:52:05;9.50;;;6.60;;
58222;SDS011;44020;50.890;15.796;2023-06-19T03:54:33;8.60;;;6.30;;
58222;SDS011;44020;50.890;15.796;2023-06-19T03:57:01;7.30;;;6.50;;
58222;SDS011;44020;50.890;15.796;2023-06-19T03:59:28;6.90;;;5.90;;
58222;SDS011;44020;50.890;15.796;2023-06-19T04:01:56;7.10;;;5.30;;
58222;SDS011;44020;50.890;15.796;2023-06-19T04:04:24;9.20;;;6.10;;
58222;SDS011;44020;50.890;15.796;2023-06-19T04:06:51;8.10;;;5.70;;
58222;SDS011;44020;50.890;15.796;2023-06-19T04:09:18;6.50;;;5.50;;
58222;SDS011;44020;50.890;15.796;2023-06-19T04:11:46;6.90;;;5.50;;
58222;SDS011;44020;50.890;15.796;2023-06-19T04:14:14;7.80;;;6.30;;
58222;SDS011;44020;50.890;15.796;2023-06-19T04:16:41;7.10;;;6.30;;
58222;SDS011;44020;50.890;15.796;2023-06-19T04:19:08;8.10;;;6.20;;
58222;SDS011;44020;50.890;15.796;2023-06-19T04:21:36;7.10;;;6.10;;
58222;SDS011;44020;50.890;15.796;2023-06-19T04:24:03;9.50;;;6.40;;
58222;SDS011;44020;50.890;15.796;2023-06-19T04:26:31;9.30;;;6.50;;
58222;SDS011;44020;50.890;15.796;2023-06-19T04:28:59;9.30;;;6.80;;
58222;SDS011;44020;50.890;15.796;2023-06-19T04:31:27;7.90;;;6.70;;
58222;SDS011;44020;50.890;15.796;2023-06-19T04:33:55;7.50;;;6.60;;
58222;SDS011;44020;50.890;15.796;2023-06-19T04:36:23;7.00;;;6.20;;
58222;SDS011;44020;50.890;15.796;2023-06-19T04:38:50;6.90;;;6.20;;
58222;SDS011;44020;50.890;15.796;2023-06-19T04:41:18;6.70;;;5.90;;
58222;SDS011;44020;50.890;15.796;2023-06-19T04:43:46;8.10;;;6.50;;
58222;SDS011;44020;50.890;15.796;2023-06-19T04:46:13;9.10;;;6.30;;
58222;SDS011;44020;50.890;15.796;2023-06-19T04:48:40;8.20;;;6.40;;
58222;SDS011;44020;50.890;15.796;2023-06-19T04:51:08;8.20;;;6.90;;
58222;SDS011;44020;50.890;15.796;2023-06-19T04:53:36;7.90;;;6.40;;
58222;SDS011;44020;50.890;15.796;2023-06-19T04:56:04;10.40;;;6.90;;
58222;SDS011;44020;50.890;15.796;2023-06-19T04:58:31;6.70;;;6.00;;
58222;SDS011;44020;50.890;15.796;2023-06-19T05:00:58;8.60;;;7.20;;
58222;SDS011;44020;50.890;15.796;2023-06-19T05:03:27;8.90;;;7.00;;
58222;SDS011;44020;50.890;15.796;2023-06-19T05:05:54;9.40;;;7.10;;
58222;SDS011;44020;50.890;15.796;2023-06-19T05:08:22;7.70;;;6.60;;
58222;SDS011;44020;50.890;15.796;2023-06-19T05:10:50;11.30;;;6.80;;
58222;SDS011;44020;50.890;15.796;2023-06-19T05:13:17;11.70;;;7.10;;
58222;SDS011;44020;50.890;15.796;2023-06-19T05:15:45;8.80;;;6.50;;
58222;SDS011;44020;50.890;15.796;2023-06-19T05:18:13;8.70;;;7.30;;
58222;SDS011;44020;50.890;15.796;2023-06-19T05:20:40;12.20;;;7.50;;
58222;SDS011;44020;50.890;15.796;2023-06-19T05:23:08;12.40;;;7.70;;
58222;SDS011;44020;50.890;15.796;2023-06-19T05:25:35;12.00;;;7.20;;
58222;SDS011;44020;50.890;15.796;2023-06-19T05:28:03;9.70;;;6.90;;
58222;SDS011;44020;50.890;15.796;2023-06-19T05:30:31;11.20;;;7.80;;
58222;SDS011;44020;50.890;15.796;2023-06-19T05:32:58;9.20;;;7.10;;
58222;SDS011;44020;50.890;15.796;2023-06-19T05:35:25;10.00;;;6.70;;
58222;SDS011;44020;50.890;15.796;2023-06-19T05:37:53;9.30;;;7.50;;
58222;SDS011;44020;50.890;15.796;2023-06-19T05:40:21;9.50;;;7.00;;
58222;SDS011;44020;50.890;15.796;2023-06-19T05:42:49;12.90;;;7.80;;
58222;SDS011;44020;50.890;15.796;2023-06-19T05:45:16;9.00;;;7.60;;
58222;SDS011;44020;50.890;15.796;2023-06-19T05:47:44;9.40;;;7.30;;
58222;SDS011;44020;50.890;15.796;2023-06-19T05:50:12;8.90;;;7.40;;
58222;SDS011;44020;50.890;15.796;2023-06-19T05:52:39;10.30;;;7.90;;
58222;SDS011;44020;50.890;15.796;2023-06-19T05:55:10;10.10;;;7.40;;
58222;SDS011;44020;50.890;15.796;2023-06-19T05:57:39;9.30;;;7.40;;
58222;SDS011;44020;50.890;15.796;2023-06-19T06:00:06;9.20;;;7.40;;
58222;SDS011;44020;50.890;15.796;2023-06-19T06:02:38;11.00;;;7.60;;
58222;SDS011;44020;50.890;15.796;2023-06-19T06:05:05;8.40;;;7.10;;
58222;SDS011;44020;50.890;15.796;2023-06-19T06:07:33;8.20;;;6.80;;
58222;SDS011;44020;50.890;15.796;2023-06-19T06:10:01;9.40;;;7.10;;
58222;SDS011;44020;50.890;15.796;2023-06-19T06:12:29;10.90;;;7.40;;
58222;SDS011;44020;50.890;15.796;2023-06-19T06:14:56;8.90;;;7.10;;
58222;SDS011;44020;50.890;15.796;2023-06-19T06:17:23;9.10;;;6.90;;
58222;SDS011;44020;50.890;15.796;2023-06-19T06:19:50;9.60;;;6.70;;
58222;SDS011;44020;50.890;15.796;2023-06-19T06:22:17;9.80;;;7.20;;
58222;SDS011;44020;50.890;15.796;2023-06-19T06:24:45;12.70;;;7.20;;
58222;SDS011;44020;50.890;15.796;2023-06-19T06:27:13;9.00;;;7.10;;
58222;SDS011;44020;50.890;15.796;2023-06-19T06:29:41;10.60;;;7.70;;
58222;SDS011;44020;50.890;15.796;2023-06-19T06:32:08;10.00;;;7.20;;
58222;SDS011;44020;50.890;15.796;2023-06-19T06:34:36;10.70;;;7.80;;
58222;SDS011;44020;50.890;15.796;2023-06-19T06:37:03;8.50;;;7.40;;
58222;SDS011;44020;50.890;15.796;2023-06-19T06:39:31;7.80;;;6.80;;
58222;SDS011;44020;50.890;15.796;2023-06-19T06:41:58;9.60;;;7.50;;
58222;SDS011;44020;50.890;15.796;2023-06-19T06:44:26;9.20;;;7.10;;
58222;SDS011;44020;50.890;15.796;2023-06-19T06:46:53;9.30;;;7.20;;
58222;SDS011;44020;50.890;15.796;2023-06-19T06:49:22;11.80;;;7.60;;
58222;SDS011;44020;50.890;15.796;2023-06-19T06:51:49;8.90;;;6.70;;
58222;SDS011;44020;50.890;15.796;2023-06-19T06:54:16;9.80;;;8.00;;
58222;SDS011;44020;50.890;15.796;2023-06-19T06:56:43;9.20;;;7.50;;
58222;SDS011;44020;50.890;15.796;2023-06-19T06:59:14;9.70;;;7.30;;
58222;SDS011;44020;50.890;15.796;2023-06-19T07:01:44;10.40;;;7.40;;
58222;SDS011;44020;50.890;15.796;2023-06-19T07:04:11;11.90;;;7.10;;
58222;SDS011;44020;50.890;15.796;2023-06-19T07:06:37;9.00;;;6.70;;
58222;SDS011;44020;50.890;15.796;2023-06-19T07:09:05;9.20;;;6.80;;
58222;SDS011;44020;50.890;15.796;2023-06-19T07:11:32;8.20;;;6.90;;
58222;SDS011;44020;50.890;15.796;2023-06-19T07:13:59;9.90;;;6.50;;
58222;SDS011;44020;50.890;15.796;2023-06-19T07:16:26;8.00;;;6.70;;
58222;SDS011;44020;50.890;15.796;2023-06-19T07:18:53;8.10;;;6.80;;
58222;SDS011;44020;50.890;15.796;2023-06-19T07:21:20;7.50;;;6.50;;
58222;SDS011;44020;50.890;15.796;2023-06-19T07:23:47;7.90;;;7.10;;
58222;SDS011;44020;50.890;15.796;2023-06-19T07:26:14;9.70;;;6.40;;
58222;SDS011;44020;50.890;15.796;2023-06-19T07:28:42;8.10;;;6.60;;
58222;SDS011;44020;50.890;15.796;2023-06-19T07:31:09;9.70;;;6.70;;
58222;SDS011;44020;50.890;15.796;2023-06-19T07:33:36;10.80;;;6.80;;
58222;SDS011;44020;50.890;15.796;2023-06-19T07:36:03;8.40;;;6.50;;
58222;SDS011;44020;50.890;15.796;2023-06-19T07:38:30;8.40;;;6.60;;
58222;SDS011;44020;50.890;15.796;2023-06-19T07:40:57;8.30;;;6.40;;
58222;SDS011;44020;50.890;15.796;2023-06-19T07:43:24;11.10;;;7.00;;
58222;SDS011;44020;50.890;15.796;2023-06-19T07:45:51;8.40;;;6.80;;
58222;SDS011;44020;50.890;15.796;2023-06-19T07:48:18;8.60;;;6.70;;
58222;SDS011;44020;50.890;15.796;2023-06-19T07:50:45;7.00;;;6.30;;
58222;SDS011;44020;50.890;15.796;2023-06-19T07:53:13;7.60;;;6.50;;
58222;SDS011;44020;50.890;15.796;2023-06-19T07:55:40;8.00;;;6.90;;
58222;SDS011;44020;50.890;15.796;2023-06-19T07:58:08;10.00;;;6.50;;
58222;SDS011;44020;50.890;15.796;2023-06-19T08:00:35;8.00;;;6.90;;
58222;SDS011;44020;50.890;15.796;2023-06-19T08:03:02;8.30;;;7.10;;
58222;SDS011;44020;50.890;15.796;2023-06-19T08:05:29;7.80;;;6.80;;
58222;SDS011;44020;50.890;15.796;2023-06-19T08:07:58;7.40;;;6.70;;
58222;SDS011;44020;50.890;15.796;2023-06-19T08:10:26;7.80;;;6.20;;
58222;SDS011;44020;50.890;15.796;2023-06-19T08:12:53;7.70;;;6.90;;
58222;SDS011;44020;50.890;15.796;2023-06-19T08:15:21;7.60;;;6.70;;
58222;SDS011;44020;50.890;15.796;2023-06-19T08:17:48;10.50;;;6.80;;
58222;SDS011;44020;50.890;15.796;2023-06-19T08:20:15;7.70;;;6.70;;
58222;SDS011;44020;50.890;15.796;2023-06-19T08:22:42;7.90;;;7.10;;
58222;SDS011;44020;50.890;15.796;2023-06-19T08:25:09;8.20;;;7.10;;
58222;SDS011;44020;50.890;15.796;2023-06-19T08:27:37;7.70;;;6.60;;
58222;SDS011;44020;50.890;15.796;2023-06-19T08:30:04;7.30;;;6.50;;
58222;SDS011;44020;50.890;15.796;2023-06-19T08:32:32;7.70;;;6.90;;
58222;SDS011;44020;50.890;15.796;2023-06-19T08:35:01;7.60;;;6.50;;
58222;SDS011;44020;50.890;15.796;2023-06-19T08:37:30;8.30;;;6.40;;
58222;SDS011;44020;50.890;15.796;2023-06-19T08:39:57;7.90;;;6.60;;
58222;SDS011;44020;50.890;15.796;2023-06-19T08:42:24;9.60;;;7.10;;
58222;SDS011;44020;50.890;15.796;2023-06-19T08:44:51;7.70;;;6.90;;
58222;SDS011;44020;50.890;15.796;2023-06-19T08:47:18;7.20;;;6.40;;
58222;SDS011;44020;50.890;15.796;2023-06-19T08:49:45;8.60;;;6.30;;
58222;SDS011;44020;50.890;15.796;2023-06-19T08:52:13;8.70;;;6.40;;
58222;SDS011;44020;50.890;15.796;2023-06-19T08:54:40;7.40;;;6.30;;
58222;SDS011;44020;50.890;15.796;2023-06-19T08:57:10;7.70;;;5.90;;
58222;SDS011;44020;50.890;15.796;2023-06-19T08:59:38;6.40;;;5.70;;
58222;SDS011;44020;50.890;15.796;2023-06-19T09:02:06;8.80;;;6.50;;
58222;SDS011;44020;50.890;15.796;2023-06-19T09:04:33;7.80;;;6.20;;
58222;SDS011;44020;50.890;15.796;2023-06-19T09:07:01;7.80;;;6.90;;
58222;SDS011;44020;50.890;15.796;2023-06-19T09:09:30;7.50;;;5.90;;
58222;SDS011;44020;50.890;15.796;2023-06-19T09:12:03;6.60;;;5.90;;
58222;SDS011;44020;50.890;15.796;2023-06-19T09:14:31;7.20;;;6.40;;
58222;SDS011;44020;50.890;15.796;2023-06-19T09:16:59;7.00;;;5.90;;
58222;SDS011;44020;50.890;15.796;2023-06-19T09:19:27;7.10;;;6.40;;
58222;SDS011;44020;50.890;15.796;2023-06-19T09:22:05;6.60;;;6.00;;
58222;SDS011;44020;50.890;15.796;2023-06-19T09:24:34;7.40;;;5.90;;
58222;SDS011;44020;50.890;15.796;2023-06-19T09:29:41;6.80;;;5.80;;
58222;SDS011;44020;50.890;15.796;2023-06-19T09:32:19;8.40;;;5.50;;
58222;SDS011;44020;50.890;15.796;2023-06-19T09:34:48;9.70;;;5.80;;
58222;SDS011;44020;50.890;15.796;2023-06-19T09:37:28;6.30;;;5.10;;
58222;SDS011;44020;50.890;15.796;2023-06-19T09:39:59;9.00;;;6.30;;
58222;SDS011;44020;50.890;15.796;2023-06-19T09:42:32;6.40;;;5.60;;
58222;SDS011;44020;50.890;15.796;2023-06-19T09:47:35;6.00;;;5.30;;
58222;SDS011;44020;50.890;15.796;2023-06-19T09:50:04;6.30;;;5.60;;
58222;SDS011;44020;50.890;15.796;2023-06-19T09:52:32;7.00;;;5.50;;
58222;SDS011;44020;50.890;15.796;2023-06-19T09:55:01;6.30;;;5.70;;
58222;SDS011;44020;50.890;15.796;2023-06-19T09:57:32;7.40;;;5.80;;
58222;SDS011;44020;50.890;15.796;2023-06-19T10:00:00;6.20;;;5.30;;
58222;SDS011;44020;50.890;15.796;2023-06-19T10:02:39;8.20;;;5.50;;
58222;SDS011;44020;50.890;15.796;2023-06-19T10:05:08;7.30;;;5.40;;
58222;SDS011;44020;50.890;15.796;2023-06-19T10:07:38;7.30;;;5.70;;
58222;SDS011;44020;50.890;15.796;2023-06-19T10:10:25;6.70;;;6.00;;
58222;SDS011;44020;50.890;15.796;2023-06-19T10:12:55;6.20;;;5.60;;
58222;SDS011;44020;50.890;15.796;2023-06-19T10:15:27;6.40;;;5.70;;
58222;SDS011;44020;50.890;15.796;2023-06-19T10:18:00;6.10;;;5.50;;
58222;SDS011;44020;50.890;15.796;2023-06-19T10:20:32;6.10;;;5.20;;
58222;SDS011;44020;50.890;15.796;2023-06-19T10:23:12;8.80;;;6.10;;
58222;SDS011;44020;50.890;15.796;2023-06-19T10:25:46;6.20;;;5.60;;
58222;SDS011;44020;50.890;15.796;2023-06-19T10:30:59;6.10;;;5.20;;
58222;SDS011;44020;50.890;15.796;2023-06-19T10:33:29;10.10;;;5.50;;
58222;SDS011;44020;50.890;15.796;2023-06-19T10:35:59;6.70;;;6.10;;
58222;SDS011;44020;50.890;15.796;2023-06-19T10:38:28;6.50;;;5.50;;
58222;SDS011;44020;50.890;15.796;2023-06-19T10:40:56;8.50;;;5.50;;
58222;SDS011;44020;50.890;15.796;2023-06-19T10:43:23;7.20;;;5.10;;
58222;SDS011;44020;50.890;15.796;2023-06-19T10:45:54;7.00;;;5.80;;
58222;SDS011;44020;50.890;15.796;2023-06-19T10:48:22;6.90;;;5.60;;
58222;SDS011;44020;50.890;15.796;2023-06-19T10:50:50;8.20;;;6.10;;
58222;SDS011;44020;50.890;15.796;2023-06-19T10:53:29;6.40;;;5.60;;
58222;SDS011;44020;50.890;15.796;2023-06-19T10:56:01;8.20;;;5.90;;
58222;SDS011;44020;50.890;15.796;2023-06-19T10:58:29;6.70;;;6.00;;
58222;SDS011;44020;50.890;15.796;2023-06-19T11:00:56;8.30;;;5.90;;
58222;SDS011;44020;50.890;15.796;2023-06-19T11:03:24;8.00;;;5.80;;
58222;SDS011;44020;50.890;15.796;2023-06-19T11:05:51;7.30;;;5.80;;
58222;SDS011;44020;50.890;15.796;2023-06-19T11:08:18;6.70;;;6.00;;
58222;SDS011;44020;50.890;15.796;2023-06-19T11:10:47;6.50;;;5.90;;
58222;SDS011;44020;50.890;15.796;2023-06-19T11:13:15;9.60;;;5.80;;
58222;SDS011;44020;50.890;15.796;2023-06-19T11:15:43;8.50;;;6.20;;
58222;SDS011;44020;50.890;15.796;2023-06-19T11:18:11;8.10;;;6.50;;
58222;SDS011;44020;50.890;15.796;2023-06-19T11:20:45;9.20;;;5.70;;
58222;SDS011;44020;50.890;15.796;2023-06-19T11:23:24;9.40;;;6.30;;
58222;SDS011;44020;50.890;15.796;2023-06-19T11:25:53;7.30;;;6.30;;
58222;SDS011;44020;50.890;15.796;2023-06-19T11:28:20;6.80;;;6.10;;
58222;SDS011;44020;50.890;15.796;2023-06-19T11:30:49;6.40;;;5.80;;
58222;SDS011;44020;50.890;15.796;2023-06-19T11:33:24;8.10;;;6.20;;
58222;SDS011;44020;50.890;15.796;2023-06-19T11:35:52;7.40;;;6.10;;
58222;SDS011;44020;50.890;15.796;2023-06-19T11:38:20;7.00;;;5.60;;
58222;SDS011;44020;50.890;15.796;2023-06-19T11:40:49;7.10;;;5.80;;
58222;SDS011;44020;50.890;15.796;2023-06-19T11:43:29;6.40;;;5.70;;
58222;SDS011;44020;50.890;15.796;2023-06-19T11:46:07;6.80;;;5.90;;
58222;SDS011;44020;50.890;15.796;2023-06-19T11:48:37;10.60;;;6.60;;
58222;SDS011;44020;50.890;15.796;2023-06-19T11:51:05;8.20;;;5.60;;
58222;SDS011;44020;50.890;15.796;2023-06-19T11:53:32;6.60;;;5.80;;
58222;SDS011;44020;50.890;15.796;2023-06-19T11:55:59;8.10;;;6.00;;
58222;SDS011;44020;50.890;15.796;2023-06-19T11:58:27;9.70;;;6.10;;
58222;SDS011;44020;50.890;15.796;2023-06-19T12:00:54;9.80;;;6.20;;
58222;SDS011;44020;50.890;15.796;2023-06-19T12:03:22;6.60;;;6.00;;
58222;SDS011;44020;50.890;15.796;2023-06-19T12:05:49;7.50;;;6.10;;
58222;SDS011;44020;50.890;15.796;2023-06-19T12:08:17;8.00;;;6.00;;
58222;SDS011;44020;50.890;15.796;2023-06-19T12:10:44;7.40;;;6.10;;
58222;SDS011;44020;50.890;15.796;2023-06-19T12:13:11;8.00;;;6.50;;
58222;SDS011;44020;50.890;15.796;2023-06-19T12:15:38;6.20;;;5.60;;
58222;SDS011;44020;50.890;15.796;2023-06-19T12:18:05;6.70;;;5.80;;
58222;SDS011;44020;50.890;15.796;2023-06-19T12:20:33;6.60;;;5.70;;
58222;SDS011;44020;50.890;15.796;2023-06-19T12:23:00;8.00;;;5.70;;
58222;SDS011;44020;50.890;15.796;2023-06-19T12:25:28;6.90;;;5.90;;
58222;SDS011;44020;50.890;15.796;2023-06-19T12:27:55;7.20;;;6.10;;
58222;SDS011;44020;50.890;15.796;2023-06-19T12:30:22;10.00;;;6.60;;
58222;SDS011;44020;50.890;15.796;2023-06-19T12:32:50;7.70;;;6.50;;
58222;SDS011;44020;50.890;15.796;2023-06-19T12:35:17;8.30;;;6.60;;
58222;SDS011;44020;50.890;15.796;2023-06-19T12:37:44;7.60;;;6.40;;
58222;SDS011;44020;50.890;15.796;2023-06-19T12:40:12;9.10;;;7.30;;
58222;SDS011;44020;50.890;15.796;2023-06-19T12:42:39;11.60;;;7.40;;
58222;SDS011;44020;50.890;15.796;2023-06-19T12:45:06;8.30;;;6.40;;
58222;SDS011;44020;50.890;15.796;2023-06-19T12:47:33;8.10;;;6.50;;
58222;SDS011;44020;50.890;15.796;2023-06-19T12:50:00;9.50;;;7.50;;
58222;SDS011;44020;50.890;15.796;2023-06-19T12:52:28;7.20;;;6.40;;
58222;SDS011;44020;50.890;15.796;2023-06-19T12:54:55;8.20;;;6.50;;
58222;SDS011;44020;50.890;15.796;2023-06-19T12:57:22;10.70;;;6.80;;
58222;SDS011;44020;50.890;15.796;2023-06-19T12:59:49;9.00;;;7.20;;
58222;SDS011;44020;50.890;15.796;2023-06-19T13:02:16;8.80;;;6.50;;
58222;SDS011;44020;50.890;15.796;2023-06-19T13:04:43;6.80;;;5.70;;
58222;SDS011;44020;50.890;15.796;2023-06-19T13:07:10;8.00;;;6.20;;
58222;SDS011;44020;50.890;15.796;2023-06-19T13:09:38;7.60;;;6.60;;
58222;SDS011;44020;50.890;15.796;2023-06-19T13:12:06;7.60;;;6.10;;
58222;SDS011;44020;50.890;15.796;2023-06-19T13:14:33;7.00;;;6.30;;
58222;SDS011;44020;50.890;15.796;2023-06-19T13:17:00;6.80;;;5.80;;
58222;SDS011;44020;50.890;15.796;2023-06-19T13:19:28;6.90;;;6.20;;
58222;SDS011;44020;50.890;15.796;2023-06-19T13:21:55;10.40;;;6.70;;
58222;SDS011;44020;50.890;15.796;2023-06-19T13:24:22;7.10;;;6.20;;
58222;SDS011;44020;50.890;15.796;2023-06-19T13:26:49;7.10;;;5.80;;
58222;SDS011;44020;50.890;15.796;2023-06-19T13:29:16;6.50;;;5.90;;
58222;SDS011;44020;50.890;15.796;2023-06-19T13:31:43;7.20;;;5.70;;
58222;SDS011;44020;50.890;15.796;2023-06-19T13:34:10;6.60;;;5.90;;
58222;SDS011;44020;50.890;15.796;2023-06-19T13:36:37;7.00;;;6.30;;
58222;SDS011;44020;50.890;15.796;2023-06-19T13:39:06;6.80;;;6.00;;
58222;SDS011;44020;50.890;15.796;2023-06-19T13:41:34;7.40;;;5.90;;
58222;SDS011;44020;50.890;15.796;2023-06-19T13:44:01;7.90;;;5.90;;
58222;SDS011;44020;50.890;15.796;2023-06-19T13:46:28;7.70;;;6.10;;
58222;SDS011;44020;50.890;15.796;2023-06-19T13:48:58;7.70;;;5.50;;
58222;SDS011;44020;50.890;15.796;2023-06-19T13:51:25;6.90;;;5.80;;
58222;SDS011;44020;50.890;15.796;2023-06-19T13:53:52;7.20;;;6.30;;
58222;SDS011;44020;50.890;15.796;2023-06-19T13:56:21;6.50;;;5.90;;
58222;SDS011;44020;50.890;15.796;2023-06-19T13:58:50;12.00;;;6.70;;
58222;SDS011;44020;50.890;15.796;2023-06-19T14:01:17;10.20;;;6.30;;
58222;SDS011;44020;50.890;15.796;2023-06-19T14:03:44;7.90;;;6.60;;
58222;SDS011;44020;50.890;15.796;2023-06-19T14:06:11;6.80;;;6.10;;
58222;SDS011;44020;50.890;15.796;2023-06-19T14:08:39;7.40;;;6.00;;
58222;SDS011;44020;50.890;15.796;2023-06-19T14:11:06;6.80;;;5.70;;
58222;SDS011;44020;50.890;15.796;2023-06-19T14:13:33;6.70;;;5.60;;
58222;SDS011;44020;50.890;15.796;2023-06-19T14:16:01;7.10;;;5.90;;
58222;SDS011;44020;50.890;15.796;2023-06-19T14:18:28;6.80;;;6.00;;
58222;SDS011;44020;50.890;15.796;2023-06-19T14:20:55;7.40;;;5.50;;
58222;SDS011;44020;50.890;15.796;2023-06-19T14:23:22;11.10;;;6.00;;
58222;SDS011;44020;50.890;15.796;2023-06-19T14:25:49;8.20;;;6.60;;
58222;SDS011;44020;50.890;15.796;2023-06-19T14:28:17;8.80;;;5.70;;
58222;SDS011;44020;50.890;15.796;2023-06-19T14:30:44;7.50;;;6.00;;
58222;SDS011;44020;50.890;15.796;2023-06-19T14:33:11;6.90;;;6.20;;
58222;SDS011;44020;50.890;15.796;2023-06-19T14:35:42;6.50;;;5.90;;
58222;SDS011;44020;50.890;15.796;2023-06-19T14:38:12;6.60;;;5.40;;
58222;SDS011;44020;50.890;15.796;2023-06-19T14:40:43;8.30;;;5.60;;
58222;SDS011;44020;50.890;15.796;2023-06-19T14:43:11;9.40;;;6.00;;
58222;SDS011;44020;50.890;15.796;2023-06-19T14:45:39;7.60;;;5.70;;
58222;SDS011;44020;50.890;15.796;2023-06-19T14:48:07;6.40;;;5.80;;
58222;SDS011;44020;50.890;15.796;2023-06-19T14:50:34;7.50;;;5.90;;